KHTL/HTL METAR and TAF weather

Enter ICAO airport designator
Station Type Date Time Source
KHTL METAR 2021/04/14 18:53 UTC NOAA

KHTL 141853Z AUTO 26009KT 10SM OVC032 04/M03 A2998 RMK AO2 SLP163 T00441033


Station Type Date Time Source
KHTL Decoded METAR 2021/04/14 18:53 UTC NOAA

ROSCOMMON COUNTY AIRPORT, MI, United States (KHTL) 44-21N 084-40W 351M
Apr 14, 2021 - 02:53 PM EDT / 2021.04.14 1853 UTC
Wind: from the W (260 degrees) at 10 MPH (9 KT):0
Visibility: 10 mile(s):0
Sky conditions: overcast
Temperature: 39.9 F (4.4 C)
Dew Point: 26.1 F (-3.3 C)
Relative Humidity: 57%
Pressure (altimeter): 29.98 in. Hg (1015 hPa)
ob: KHTL 141853Z AUTO 26009KT 10SM OVC032 04/M03 A2998 RMK AO2 SLP163 T00441033
cycle: 19

Station Type Date Time Source
KHTL TAF UTC NOAA

Error!

Example: see airport list